PTD01 EGNS-EGAC
Flight info
| Callsign | PTD01 |
|---|---|
| Flight time | 1h 40m |
| Altitude | 4000 |
| Route | IOM DCT NELBO DCT IPSET |
| Aircraft | DA40/L-V/N |
Departure
| Time | 2026-04-21 16:25 |
|---|---|
| Airport | Isle of Man Airport (EGNS) |
Arrival
| Time | 2026-04-21 18:06 |
|---|---|
| Airport | George Best Belfast City Airport (EGAC) |
| Time | Latitude | Longitude | Altitude | Speed | Heading |
|---|---|---|---|---|---|
| 2026-04-21 16:04 | 54.08393 | -4.63500 | 34 ft | 0 kts | 258° |
| 2026-04-21 16:18 | 54.08393 | -4.63501 | 34 ft | 1 kts | 273° |
| 2026-04-21 16:18 | 54.08379 | -4.63557 | 33 ft | 10 kts | 236° |
| 2026-04-21 16:19 | 54.08344 | -4.63578 | 33 ft | 5 kts | 244° |
| 2026-04-21 16:19 | 54.08303 | -4.63712 | 33 ft | 12 kts | 239° |
| 2026-04-21 16:19 | 54.08253 | -4.63863 | 32 ft | 12 kts | 235° |
| 2026-04-21 16:19 | 54.08214 | -4.63903 | 32 ft | 0 kts | 169° |
| 2026-04-21 16:23 | 54.08209 | -4.63899 | 32 ft | 5 kts | 155° |
| 2026-04-21 16:24 | 54.08155 | -4.63869 | 30 ft | 12 kts | 142° |
| 2026-04-21 16:24 | 54.08152 | -4.63789 | 31 ft | 5 kts | 77° |
| 2026-04-21 16:24 | 54.08172 | -4.63638 | 31 ft | 26 kts | 77° |
| 2026-04-21 16:24 | 54.08238 | -4.63158 | 39 ft | 58 kts | 77° |
| 2026-04-21 16:25 | 54.08308 | -4.62449 | 233 ft | 59 kts | 78° |
| 2026-04-21 16:25 | 54.08385 | -4.61760 | 461 ft | 60 kts | 76° |
| 2026-04-21 16:25 | 54.08577 | -4.61154 | 726 ft | 68 kts | 36° |
| 2026-04-21 16:25 | 54.09069 | -4.61584 | 992 ft | 98 kts | 307° |
| 2026-04-21 16:26 | 54.09183 | -4.62771 | 1221 ft | 104 kts | 266° |
| 2026-04-21 16:26 | 54.09061 | -4.63958 | 1481 ft | 103 kts | 253° |
| 2026-04-21 16:26 | 54.08823 | -4.65103 | 1711 ft | 104 kts | 245° |
| 2026-04-21 16:26 | 54.08540 | -4.66243 | 1957 ft | 110 kts | 239° |
| 2026-04-21 16:27 | 54.08176 | -4.67517 | 2042 ft | 125 kts | 240° |
| 2026-04-21 16:27 | 54.07812 | -4.68891 | 2082 ft | 131 kts | 244° |
| 2026-04-21 16:27 | 54.07448 | -4.70336 | 2039 ft | 131 kts | 244° |
| 2026-04-21 16:27 | 54.07168 | -4.71804 | 1994 ft | 136 kts | 255° |
| 2026-04-21 16:28 | 54.06991 | -4.73386 | 1993 ft | 133 kts | 256° |
| 2026-04-21 16:28 | 54.06816 | -4.74927 | 2086 ft | 130 kts | 257° |
| 2026-04-21 16:28 | 54.06645 | -4.76476 | 2124 ft | 134 kts | 258° |
| 2026-04-21 16:28 | 54.06489 | -4.78073 | 2056 ft | 141 kts | 259° |
| 2026-04-21 16:29 | 54.06323 | -4.79734 | 2001 ft | 144 kts | 260° |
| 2026-04-21 16:29 | 54.06158 | -4.81316 | 2028 ft | 134 kts | 260° |
| 2026-04-21 16:29 | 54.05998 | -4.82888 | 1974 ft | 132 kts | 253° |
| 2026-04-21 16:29 | 54.05510 | -4.84097 | 1953 ft | 119 kts | 205° |
| 2026-04-21 16:30 | 54.04767 | -4.84289 | 1905 ft | 104 kts | 157° |
| 2026-04-21 16:30 | 54.04118 | -4.83830 | 1857 ft | 98 kts | 145° |
| 2026-04-21 16:30 | 54.03478 | -4.83507 | 1909 ft | 97 kts | 166° |
| 2026-04-21 16:30 | 54.02791 | -4.83674 | 1922 ft | 101 kts | 181° |
| 2026-04-21 16:31 | 54.02104 | -4.83886 | 1925 ft | 101 kts | 178° |
| 2026-04-21 16:31 | 54.01409 | -4.84013 | 2006 ft | 101 kts | 175° |
| 2026-04-21 16:31 | 54.00693 | -4.84166 | 2019 ft | 108 kts | 178° |
| 2026-04-21 16:31 | 53.99939 | -4.84309 | 2065 ft | 109 kts | 176° |
| 2026-04-21 16:32 | 53.99157 | -4.84424 | 1995 ft | 115 kts | 176° |
| 2026-04-21 16:32 | 53.98365 | -4.84645 | 2000 ft | 118 kts | 192° |
| 2026-04-21 16:32 | 53.97622 | -4.85255 | 1992 ft | 120 kts | 198° |
| 2026-04-21 16:32 | 53.96873 | -4.85869 | 1998 ft | 120 kts | 198° |
| 2026-04-21 16:33 | 53.96108 | -4.86484 | 1976 ft | 122 kts | 199° |
| 2026-04-21 16:33 | 53.95355 | -4.87160 | 1978 ft | 122 kts | 201° |
| 2026-04-21 16:33 | 53.94618 | -4.87835 | 2007 ft | 120 kts | 201° |
| 2026-04-21 16:33 | 53.93883 | -4.88521 | 2009 ft | 120 kts | 202° |
| 2026-04-21 16:34 | 53.93144 | -4.89232 | 1983 ft | 124 kts | 203° |
| 2026-04-21 16:34 | 53.92397 | -4.89959 | 2004 ft | 124 kts | 203° |
| 2026-04-21 16:34 | 53.91651 | -4.90715 | 2015 ft | 124 kts | 205° |
| 2026-04-21 16:34 | 53.90924 | -4.91503 | 1993 ft | 125 kts | 206° |
| 2026-04-21 16:35 | 53.90188 | -4.92284 | 1973 ft | 125 kts | 205° |
| 2026-04-21 16:35 | 53.89415 | -4.92920 | 1954 ft | 119 kts | 185° |
| 2026-04-21 16:35 | 53.88640 | -4.92860 | 1984 ft | 107 kts | 152° |
| 2026-04-21 16:35 | 53.87970 | -4.92370 | 1961 ft | 107 kts | 148° |
| 2026-04-21 16:36 | 53.87288 | -4.91846 | 1940 ft | 107 kts | 147° |
| 2026-04-21 16:36 | 53.86724 | -4.91132 | 1968 ft | 98 kts | 117° |
| 2026-04-21 16:36 | 53.86664 | -4.90052 | 1983 ft | 96 kts | 71° |
| 2026-04-21 16:36 | 53.87157 | -4.89225 | 1953 ft | 105 kts | 40° |
| 2026-04-21 16:37 | 53.87754 | -4.88547 | 1972 ft | 103 kts | 41° |
| 2026-04-21 16:37 | 53.88338 | -4.87834 | 1964 ft | 104 kts | 42° |
| 2026-04-21 16:37 | 53.88905 | -4.87127 | 1986 ft | 101 kts | 43° |
| 2026-04-21 16:37 | 53.89469 | -4.86397 | 1983 ft | 102 kts | 44° |
| 2026-04-21 16:38 | 53.90027 | -4.85655 | 1999 ft | 102 kts | 44° |
| 2026-04-21 16:38 | 53.90583 | -4.84901 | 2013 ft | 102 kts | 45° |
| 2026-04-21 16:38 | 53.91135 | -4.84129 | 2033 ft | 102 kts | 46° |
| 2026-04-21 16:38 | 53.91666 | -4.83408 | 2190 ft | 97 kts | 43° |
| 2026-04-21 16:39 | 53.92223 | -4.82751 | 2331 ft | 98 kts | 40° |
| 2026-04-21 16:39 | 53.92792 | -4.82117 | 2465 ft | 98 kts | 38° |
| 2026-04-21 16:39 | 53.93387 | -4.81516 | 2571 ft | 101 kts | 36° |
| 2026-04-21 16:39 | 53.93996 | -4.80949 | 2728 ft | 98 kts | 34° |
| 2026-04-21 16:40 | 53.94580 | -4.80423 | 2882 ft | 95 kts | 37° |
| 2026-04-21 16:40 | 53.95144 | -4.79823 | 2961 ft | 99 kts | 38° |
| 2026-04-21 16:40 | 53.95752 | -4.79199 | 3003 ft | 105 kts | 38° |
| 2026-04-21 16:40 | 53.96387 | -4.78529 | 3011 ft | 111 kts | 38° |
| 2026-04-21 16:41 | 53.97037 | -4.77806 | 3011 ft | 112 kts | 40° |
| 2026-04-21 16:41 | 53.97669 | -4.77040 | 2990 ft | 112 kts | 41° |
| 2026-04-21 16:41 | 53.98333 | -4.76354 | 2994 ft | 114 kts | 26° |
| 2026-04-21 16:41 | 53.99146 | -4.76253 | 2963 ft | 120 kts | 5° |
| 2026-04-21 16:42 | 53.99975 | -4.76285 | 2955 ft | 119 kts | 7° |
| 2026-04-21 16:42 | 54.00797 | -4.76210 | 2944 ft | 118 kts | 11° |
| 2026-04-21 16:42 | 54.01612 | -4.76092 | 2948 ft | 116 kts | 12° |
| 2026-04-21 16:42 | 54.02427 | -4.76084 | 2922 ft | 119 kts | 4° |
| 2026-04-21 16:43 | 54.03217 | -4.75990 | 2973 ft | 112 kts | 16° |
| 2026-04-21 16:43 | 54.04003 | -4.75837 | 2937 ft | 119 kts | 356° |
| 2026-04-21 16:43 | 54.04788 | -4.76404 | 2939 ft | 121 kts | 346° |
| 2026-04-21 16:43 | 54.05592 | -4.76518 | 2959 ft | 115 kts | 14° |
| 2026-04-21 16:44 | 54.06395 | -4.76326 | 3005 ft | 117 kts | 13° |
| 2026-04-21 16:44 | 54.07222 | -4.76388 | 3100 ft | 123 kts | 343° |
| 2026-04-21 16:44 | 54.07886 | -4.77281 | 3161 ft | 130 kts | 312° |
| 2026-04-21 16:44 | 54.08444 | -4.78507 | 3134 ft | 130 kts | 322° |
| 2026-04-21 16:45 | 54.09147 | -4.79473 | 3077 ft | 131 kts | 326° |
| 2026-04-21 16:45 | 54.09868 | -4.80394 | 3074 ft | 127 kts | 328° |
| 2026-04-21 16:45 | 54.10554 | -4.81264 | 3207 ft | 119 kts | 328° |
| 2026-04-21 16:45 | 54.11218 | -4.82104 | 3311 ft | 116 kts | 328° |
| 2026-04-21 16:46 | 54.11853 | -4.82875 | 3507 ft | 108 kts | 329° |
| 2026-04-21 16:46 | 54.12462 | -4.83615 | 3653 ft | 107 kts | 329° |
| 2026-04-21 16:46 | 54.13055 | -4.84345 | 3778 ft | 107 kts | 329° |
| 2026-04-21 16:46 | 54.13668 | -4.85078 | 3898 ft | 107 kts | 330° |
| 2026-04-21 16:47 | 54.14287 | -4.85808 | 3975 ft | 112 kts | 329° |
| 2026-04-21 16:47 | 54.14938 | -4.86589 | 4015 ft | 114 kts | 329° |
| 2026-04-21 16:47 | 54.15586 | -4.87375 | 4040 ft | 117 kts | 328° |
| 2026-04-21 16:47 | 54.16252 | -4.88204 | 4044 ft | 120 kts | 327° |
| 2026-04-21 16:48 | 54.16917 | -4.89079 | 4056 ft | 120 kts | 326° |
| 2026-04-21 16:48 | 54.17576 | -4.89975 | 4051 ft | 122 kts | 324° |
| 2026-04-21 16:48 | 54.18232 | -4.90913 | 4021 ft | 125 kts | 323° |
| 2026-04-21 16:48 | 54.18884 | -4.91881 | 4039 ft | 124 kts | 323° |
| 2026-04-21 16:49 | 54.19546 | -4.92853 | 4050 ft | 127 kts | 323° |
| 2026-04-21 16:49 | 54.20228 | -4.93816 | 4067 ft | 126 kts | 326° |
| 2026-04-21 16:49 | 54.20937 | -4.94751 | 4029 ft | 130 kts | 326° |
| 2026-04-21 16:49 | 54.21665 | -4.95679 | 4030 ft | 129 kts | 328° |
| 2026-04-21 16:50 | 54.22409 | -4.96521 | 4034 ft | 129 kts | 332° |
| 2026-04-21 16:50 | 54.23171 | -4.97340 | 4043 ft | 129 kts | 332° |
| 2026-04-21 16:50 | 54.23928 | -4.98199 | 4015 ft | 132 kts | 326° |
| 2026-04-21 16:50 | 54.24520 | -4.99391 | 4034 ft | 133 kts | 300° |
| 2026-04-21 16:51 | 54.24798 | -5.00910 | 4014 ft | 135 kts | 281° |
| 2026-04-21 16:51 | 54.24971 | -5.02476 | 4013 ft | 134 kts | 282° |
| 2026-04-21 16:51 | 54.25174 | -5.04022 | 4027 ft | 132 kts | 284° |
| 2026-04-21 16:51 | 54.25396 | -5.05549 | 4040 ft | 132 kts | 285° |
| 2026-04-21 16:52 | 54.25614 | -5.07060 | 4054 ft | 132 kts | 284° |
| 2026-04-21 16:52 | 54.25837 | -5.08580 | 4059 ft | 132 kts | 284° |
| 2026-04-21 16:52 | 54.26055 | -5.10122 | 4055 ft | 133 kts | 284° |
| 2026-04-21 16:52 | 54.26270 | -5.11650 | 4079 ft | 132 kts | 284° |
| 2026-04-21 16:53 | 54.26502 | -5.13165 | 4105 ft | 132 kts | 287° |
| 2026-04-21 16:53 | 54.26764 | -5.14664 | 4125 ft | 131 kts | 289° |
| 2026-04-21 16:53 | 54.27036 | -5.16078 | 4310 ft | 119 kts | 289° |
| 2026-04-21 16:53 | 54.27294 | -5.17388 | 4447 ft | 116 kts | 291° |
| 2026-04-21 16:54 | 54.27636 | -5.18617 | 4588 ft | 113 kts | 301° |
| 2026-04-21 16:54 | 54.27998 | -5.19788 | 4721 ft | 113 kts | 297° |
| 2026-04-21 16:54 | 54.28354 | -5.21005 | 4832 ft | 115 kts | 301° |
| 2026-04-21 16:54 | 54.28806 | -5.22131 | 4950 ft | 116 kts | 306° |
| 2026-04-21 16:55 | 54.29282 | -5.23241 | 5079 ft | 115 kts | 309° |
| 2026-04-21 16:55 | 54.29791 | -5.24303 | 5194 ft | 115 kts | 313° |
| 2026-04-21 16:55 | 54.30391 | -5.25143 | 5360 ft | 109 kts | 336° |
| 2026-04-21 16:55 | 54.31119 | -5.25358 | 5483 ft | 106 kts | 9° |
| 2026-04-21 16:56 | 54.31868 | -5.25245 | 5593 ft | 107 kts | 9° |
| 2026-04-21 16:56 | 54.32607 | -5.25119 | 5714 ft | 107 kts | 10° |
| 2026-04-21 16:56 | 54.33348 | -5.24982 | 5848 ft | 107 kts | 10° |
| 2026-04-21 16:56 | 54.34088 | -5.24825 | 5962 ft | 107 kts | 11° |
| 2026-04-21 16:57 | 54.34835 | -5.24684 | 6037 ft | 111 kts | 10° |
| 2026-04-21 16:57 | 54.35631 | -5.24530 | 6039 ft | 119 kts | 10° |
| 2026-04-21 16:57 | 54.36470 | -5.24379 | 6052 ft | 123 kts | 9° |
| 2026-04-21 16:57 | 54.37334 | -5.24233 | 6046 ft | 126 kts | 9° |
| 2026-04-21 16:58 | 54.38215 | -5.24058 | 6025 ft | 129 kts | 11° |
| 2026-04-21 16:58 | 54.39101 | -5.23858 | 6043 ft | 127 kts | 12° |
| 2026-04-21 16:58 | 54.39982 | -5.23671 | 6053 ft | 128 kts | 6° |
| 2026-04-21 16:58 | 54.40874 | -5.23829 | 6047 ft | 131 kts | 350° |
| 2026-04-21 16:59 | 54.41754 | -5.24232 | 6058 ft | 131 kts | 345° |
| 2026-04-21 16:59 | 54.42595 | -5.24761 | 6071 ft | 130 kts | 342° |
| 2026-04-21 16:59 | 54.43467 | -5.25208 | 6056 ft | 131 kts | 347° |
| 2026-04-21 16:59 | 54.44296 | -5.25849 | 6069 ft | 132 kts | 332° |
| 2026-04-21 17:00 | 54.45067 | -5.26720 | 6075 ft | 132 kts | 325° |
| 2026-04-21 17:00 | 54.45807 | -5.27649 | 6080 ft | 132 kts | 326° |
| 2026-04-21 17:00 | 54.46308 | -5.28242 | 6082 ft | 132 kts | 330° |
| 2026-04-21 17:00 | 54.47407 | -5.29179 | 6078 ft | 132 kts | 336° |
| 2026-04-21 17:01 | 54.48222 | -5.29897 | 6092 ft | 132 kts | 332° |
| 2026-04-21 17:01 | 54.49021 | -5.30662 | 6120 ft | 131 kts | 332° |
| 2026-04-21 17:01 | 54.49787 | -5.31541 | 6125 ft | 132 kts | 324° |
| 2026-04-21 17:01 | 54.50465 | -5.32622 | 6128 ft | 133 kts | 316° |
| 2026-04-21 17:02 | 54.51100 | -5.33732 | 6157 ft | 131 kts | 316° |
| 2026-04-21 17:02 | 54.51769 | -5.34815 | 6161 ft | 133 kts | 319° |
| 2026-04-21 17:02 | 54.52461 | -5.35875 | 6161 ft | 134 kts | 320° |
| 2026-04-21 17:02 | 54.53166 | -5.36934 | 6164 ft | 133 kts | 320° |
| 2026-04-21 17:03 | 54.53858 | -5.38004 | 6130 ft | 136 kts | 319° |
| 2026-04-21 17:03 | 54.54570 | -5.39061 | 6172 ft | 132 kts | 324° |
| 2026-04-21 17:03 | 54.55326 | -5.39922 | 6171 ft | 133 kts | 330° |
| 2026-04-21 17:03 | 54.56068 | -5.40922 | 6090 ft | 138 kts | 309° |
| 2026-04-21 17:04 | 54.56382 | -5.42199 | 6045 ft | 138 kts | 276° |
| 2026-04-21 17:04 | 54.56305 | -5.43784 | 6101 ft | 131 kts | 258° |
| 2026-04-21 17:04 | 54.56155 | -5.45345 | 6080 ft | 134 kts | 262° |
| 2026-04-21 17:04 | 54.56051 | -5.46944 | 6069 ft | 133 kts | 262° |
| 2026-04-21 17:05 | 54.55824 | -5.48483 | 6090 ft | 133 kts | 248° |
| 2026-04-21 17:05 | 54.55511 | -5.49989 | 6083 ft | 135 kts | 248° |
| 2026-04-21 17:05 | 54.55194 | -5.51511 | 6086 ft | 135 kts | 249° |
| 2026-04-21 17:05 | 54.54911 | -5.53049 | 6091 ft | 135 kts | 253° |
| 2026-04-21 17:06 | 54.54701 | -5.54622 | 6058 ft | 135 kts | 258° |
| 2026-04-21 17:06 | 54.54655 | -5.56255 | 6025 ft | 138 kts | 268° |
| 2026-04-21 17:06 | 54.54623 | -5.57898 | 6053 ft | 135 kts | 265° |
| 2026-04-21 17:06 | 54.54582 | -5.59526 | 6015 ft | 137 kts | 270° |
| 2026-04-21 17:07 | 54.54641 | -5.60612 | 6005 ft | 137 kts | 280° |
| 2026-04-21 17:07 | 54.54926 | -5.62179 | 5992 ft | 137 kts | 293° |
| 2026-04-21 17:07 | 54.55325 | -5.63661 | 5977 ft | 136 kts | 297° |
| 2026-04-21 17:07 | 54.55760 | -5.65104 | 5980 ft | 136 kts | 299° |
| 2026-04-21 17:08 | 54.56216 | -5.66542 | 5979 ft | 135 kts | 299° |
| 2026-04-21 17:08 | 54.56644 | -5.67953 | 6029 ft | 132 kts | 298° |
| 2026-04-21 17:08 | 54.57087 | -5.69327 | 6097 ft | 128 kts | 307° |
| 2026-04-21 17:08 | 54.57705 | -5.70480 | 6045 ft | 134 kts | 317° |
| 2026-04-21 17:09 | 54.59027 | -5.72746 | 6059 ft | 136 kts | 316° |
| 2026-04-21 17:09 | 54.59691 | -5.73895 | 6079 ft | 135 kts | 318° |
| 2026-04-21 17:09 | 54.60350 | -5.75034 | 6103 ft | 133 kts | 313° |
| 2026-04-21 17:10 | 54.60745 | -5.76492 | 6108 ft | 136 kts | 278° |
| 2026-04-21 17:10 | 54.60664 | -5.78115 | 6077 ft | 138 kts | 247° |
| 2026-04-21 17:10 | 54.60223 | -5.79568 | 6088 ft | 138 kts | 238° |
| 2026-04-21 17:10 | 54.59782 | -5.81043 | 6125 ft | 137 kts | 243° |
| 2026-04-21 17:11 | 54.59615 | -5.82639 | 6126 ft | 140 kts | 277° |
| 2026-04-21 17:11 | 54.60060 | -5.84092 | 6090 ft | 141 kts | 318° |
| 2026-04-21 17:11 | 54.60763 | -5.85294 | 6083 ft | 140 kts | 319° |
| 2026-04-21 17:11 | 54.61468 | -5.86451 | 6058 ft | 139 kts | 321° |
| 2026-04-21 17:12 | 54.62249 | -5.87384 | 6085 ft | 135 kts | 339° |
| 2026-04-21 17:12 | 54.63020 | -5.88334 | 6065 ft | 140 kts | 319° |
| 2026-04-21 17:12 | 54.63711 | -5.89505 | 6075 ft | 138 kts | 318° |
| 2026-04-21 17:12 | 54.64410 | -5.90636 | 6075 ft | 137 kts | 322° |
| 2026-04-21 17:13 | 54.65224 | -5.91409 | 6067 ft | 132 kts | 354° |
| 2026-04-21 17:13 | 54.66146 | -5.91590 | 6048 ft | 133 kts | 360° |
| 2026-04-21 17:13 | 54.67069 | -5.91553 | 6031 ft | 131 kts | 18° |
| 2026-04-21 17:13 | 54.67875 | -5.90913 | 6011 ft | 129 kts | 35° |
| 2026-04-21 17:14 | 54.68673 | -5.90227 | 6032 ft | 129 kts | 24° |
| 2026-04-21 17:14 | 54.69559 | -5.89913 | 6013 ft | 131 kts | 13° |
| 2026-04-21 17:14 | 54.70437 | -5.89584 | 6029 ft | 128 kts | 27° |
| 2026-04-21 17:14 | 54.71285 | -5.89118 | 5993 ft | 132 kts | 14° |
| 2026-04-21 17:15 | 54.72194 | -5.88951 | 5992 ft | 128 kts | 12° |
| 2026-04-21 17:15 | 54.73065 | -5.88771 | 6049 ft | 125 kts | 13° |
| 2026-04-21 17:15 | 54.73941 | -5.88616 | 6043 ft | 126 kts | 11° |
| 2026-04-21 17:15 | 54.74816 | -5.88476 | 6066 ft | 126 kts | 11° |
| 2026-04-21 17:16 | 54.75705 | -5.88484 | 6069 ft | 129 kts | 3° |
| 2026-04-21 17:16 | 54.76593 | -5.88516 | 6090 ft | 128 kts | 4° |
| 2026-04-21 17:16 | 54.77486 | -5.88570 | 6088 ft | 127 kts | 3° |
| 2026-04-21 17:16 | 54.78381 | -5.88632 | 6076 ft | 130 kts | 3° |
| 2026-04-21 17:17 | 54.79285 | -5.88680 | 6059 ft | 131 kts | 4° |
| 2026-04-21 17:17 | 54.80172 | -5.88717 | 6147 ft | 126 kts | 4° |
| 2026-04-21 17:17 | 54.81061 | -5.88738 | 6138 ft | 129 kts | 6° |
| 2026-04-21 17:17 | 54.81925 | -5.88499 | 6180 ft | 126 kts | 27° |
| 2026-04-21 17:18 | 54.82506 | -5.87440 | 6092 ft | 123 kts | 73° |
| 2026-04-21 17:18 | 54.82453 | -5.86035 | 6082 ft | 119 kts | 116° |
| 2026-04-21 17:18 | 54.81840 | -5.85100 | 6084 ft | 122 kts | 156° |
| 2026-04-21 17:18 | 54.80982 | -5.85062 | 6103 ft | 127 kts | 186° |
| 2026-04-21 17:19 | 54.80129 | -5.85448 | 6106 ft | 128 kts | 191° |
| 2026-04-21 17:19 | 54.79301 | -5.85979 | 6106 ft | 129 kts | 192° |
| 2026-04-21 17:19 | 54.78419 | -5.86121 | 6106 ft | 123 kts | 169° |
| 2026-04-21 17:19 | 54.77611 | -5.85733 | 6078 ft | 121 kts | 151° |
| 2026-04-21 17:20 | 54.76885 | -5.85047 | 6103 ft | 117 kts | 147° |
| 2026-04-21 17:20 | 54.76163 | -5.84359 | 6094 ft | 119 kts | 148° |
| 2026-04-21 17:20 | 54.75437 | -5.83661 | 6098 ft | 120 kts | 148° |
| 2026-04-21 17:20 | 54.74690 | -5.83032 | 6081 ft | 121 kts | 150° |
| 2026-04-21 17:21 | 54.73933 | -5.82386 | 6079 ft | 121 kts | 150° |
| 2026-04-21 17:21 | 54.73165 | -5.81774 | 6071 ft | 123 kts | 156° |
| 2026-04-21 17:21 | 54.72342 | -5.81332 | 6059 ft | 124 kts | 159° |
| 2026-04-21 17:21 | 54.71516 | -5.80897 | 6078 ft | 124 kts | 159° |
| 2026-04-21 17:22 | 54.70681 | -5.80499 | 6052 ft | 125 kts | 161° |
| 2026-04-21 17:22 | 54.69812 | -5.80390 | 6031 ft | 128 kts | 182° |
| 2026-04-21 17:22 | 54.68927 | -5.80600 | 6008 ft | 127 kts | 183° |
| 2026-04-21 17:22 | 54.68073 | -5.80838 | 6023 ft | 125 kts | 185° |
| 2026-04-21 17:23 | 54.67219 | -5.81142 | 6015 ft | 124 kts | 185° |
| 2026-04-21 17:23 | 54.66384 | -5.81514 | 6056 ft | 124 kts | 199° |
| 2026-04-21 17:23 | 54.65689 | -5.82460 | 6056 ft | 130 kts | 218° |
| 2026-04-21 17:23 | 54.65032 | -5.83555 | 6047 ft | 132 kts | 219° |
| 2026-04-21 17:24 | 54.64282 | -5.84458 | 5984 ft | 131 kts | 201° |
| 2026-04-21 17:24 | 54.63489 | -5.85209 | 6047 ft | 129 kts | 209° |
| 2026-04-21 17:24 | 54.62772 | -5.86140 | 6065 ft | 129 kts | 213° |
| 2026-04-21 17:24 | 54.62080 | -5.87171 | 6043 ft | 133 kts | 216° |
| 2026-04-21 17:25 | 54.61522 | -5.88437 | 6128 ft | 135 kts | 243° |
| 2026-04-21 17:25 | 54.61314 | -5.90066 | 6082 ft | 142 kts | 258° |
| 2026-04-21 17:25 | 54.61012 | -5.91675 | 6082 ft | 140 kts | 246° |
| 2026-04-21 17:25 | 54.60682 | -5.93259 | 6088 ft | 140 kts | 246° |
| 2026-04-21 17:26 | 54.60346 | -5.94841 | 6064 ft | 141 kts | 247° |
| 2026-04-21 17:26 | 54.60031 | -5.96463 | 6054 ft | 143 kts | 249° |
| 2026-04-21 17:26 | 54.59733 | -5.98069 | 6057 ft | 142 kts | 248° |
| 2026-04-21 17:26 | 54.59376 | -5.99691 | 6067 ft | 142 kts | 243° |
| 2026-04-21 17:27 | 54.59081 | -6.01308 | 6092 ft | 143 kts | 257° |
| 2026-04-21 17:27 | 54.58633 | -6.02797 | 6013 ft | 137 kts | 217° |
| 2026-04-21 17:27 | 54.57822 | -6.03377 | 6016 ft | 124 kts | 175° |
| 2026-04-21 17:27 | 54.57045 | -6.02967 | 6031 ft | 115 kts | 139° |
| 2026-04-21 17:28 | 54.56635 | -6.01869 | 6056 ft | 112 kts | 100° |
| 2026-04-21 17:28 | 54.56748 | -6.00530 | 6065 ft | 113 kts | 79° |
| 2026-04-21 17:28 | 54.56958 | -5.99210 | 6090 ft | 112 kts | 79° |
| 2026-04-21 17:28 | 54.57063 | -5.97889 | 6101 ft | 112 kts | 91° |
| 2026-04-21 17:29 | 54.57042 | -5.96540 | 6062 ft | 115 kts | 96° |
| 2026-04-21 17:29 | 54.57087 | -5.95152 | 5967 ft | 121 kts | 72° |
| 2026-04-21 17:29 | 54.57625 | -5.94075 | 6013 ft | 122 kts | 41° |
| 2026-04-21 17:29 | 54.58265 | -5.93147 | 6006 ft | 119 kts | 55° |
| 2026-04-21 17:30 | 54.58801 | -5.92065 | 6011 ft | 119 kts | 52° |
| 2026-04-21 17:30 | 54.59437 | -5.91107 | 5982 ft | 122 kts | 47° |
| 2026-04-21 17:30 | 54.60115 | -5.90234 | 6026 ft | 119 kts | 46° |
| 2026-04-21 17:30 | 54.60745 | -5.89293 | 6032 ft | 120 kts | 48° |
| 2026-04-21 17:31 | 54.61367 | -5.88309 | 6024 ft | 122 kts | 48° |
| 2026-04-21 17:31 | 54.62008 | -5.87363 | 6056 ft | 121 kts | 48° |
| 2026-04-21 17:31 | 54.62725 | -5.86591 | 6032 ft | 129 kts | 25° |
| 2026-04-21 17:31 | 54.63642 | -5.86505 | 6085 ft | 131 kts | 4° |
| 2026-04-21 17:32 | 54.64248 | -5.86511 | 6052 ft | 133 kts | 6° |
| 2026-04-21 17:32 | 54.65453 | -5.86336 | 6016 ft | 130 kts | 16° |
| 2026-04-21 17:32 | 54.66339 | -5.86061 | 6026 ft | 128 kts | 18° |
| 2026-04-21 17:32 | 54.67207 | -5.85745 | 6015 ft | 128 kts | 16° |
| 2026-04-21 17:33 | 54.68101 | -5.85523 | 5979 ft | 129 kts | 17° |
| 2026-04-21 17:33 | 54.68837 | -5.84857 | 5985 ft | 119 kts | 56° |
| 2026-04-21 17:33 | 54.69097 | -5.83598 | 6024 ft | 109 kts | 96° |
| 2026-04-21 17:33 | 54.68683 | -5.82555 | 6006 ft | 116 kts | 148° |
| 2026-04-21 17:34 | 54.67866 | -5.82337 | 5958 ft | 126 kts | 180° |
| 2026-04-21 17:34 | 54.67030 | -5.82838 | 5981 ft | 128 kts | 192° |
| 2026-04-21 17:34 | 54.66178 | -5.83173 | 5980 ft | 125 kts | 184° |
| 2026-04-21 17:34 | 54.65321 | -5.83477 | 5967 ft | 125 kts | 184° |
| 2026-04-21 17:35 | 54.64510 | -5.84005 | 6026 ft | 128 kts | 209° |
| 2026-04-21 17:35 | 54.63794 | -5.84968 | 6012 ft | 132 kts | 212° |
| 2026-04-21 17:35 | 54.63091 | -5.85987 | 6028 ft | 132 kts | 214° |
| 2026-04-21 17:35 | 54.62391 | -5.87030 | 6060 ft | 132 kts | 214° |
| 2026-04-21 17:36 | 54.61687 | -5.88059 | 6048 ft | 133 kts | 207° |
| 2026-04-21 17:36 | 54.60903 | -5.88781 | 6083 ft | 127 kts | 192° |
| 2026-04-21 17:36 | 54.60053 | -5.89162 | 6039 ft | 126 kts | 184° |
| 2026-04-21 17:36 | 54.59195 | -5.89292 | 6033 ft | 124 kts | 172° |
| 2026-04-21 17:37 | 54.58347 | -5.89180 | 6038 ft | 121 kts | 165° |
| 2026-04-21 17:37 | 54.57519 | -5.88934 | 6051 ft | 121 kts | 163° |
| 2026-04-21 17:37 | 54.56954 | -5.88919 | 6020 ft | 126 kts | 181° |
| 2026-04-21 17:37 | 54.55813 | -5.89407 | 6024 ft | 125 kts | 192° |
| 2026-04-21 17:38 | 54.54989 | -5.89873 | 6025 ft | 123 kts | 186° |
| 2026-04-21 17:38 | 54.54144 | -5.90164 | 5949 ft | 126 kts | 181° |
| 2026-04-21 17:38 | 54.53299 | -5.90339 | 6038 ft | 120 kts | 179° |
| 2026-04-21 17:38 | 54.52468 | -5.90532 | 6047 ft | 122 kts | 181° |
| 2026-04-21 17:39 | 54.51644 | -5.90839 | 6106 ft | 123 kts | 191° |
| 2026-04-21 17:39 | 54.50906 | -5.91669 | 6148 ft | 133 kts | 225° |
| 2026-04-21 17:39 | 54.50614 | -5.93218 | 6099 ft | 145 kts | 270° |
| 2026-04-21 17:39 | 54.50966 | -5.94799 | 6137 ft | 144 kts | 314° |
| 2026-04-21 17:40 | 54.51809 | -5.95658 | 6072 ft | 141 kts | 350° |
| 2026-04-21 17:40 | 54.52754 | -5.96050 | 6046 ft | 138 kts | 356° |
| 2026-04-21 17:40 | 54.53705 | -5.96279 | 6064 ft | 134 kts | 8° |
| 2026-04-21 17:40 | 54.54623 | -5.96084 | 6009 ft | 130 kts | 27° |
| 2026-04-21 17:41 | 54.55467 | -5.95589 | 6007 ft | 127 kts | 30° |
| 2026-04-21 17:41 | 54.56259 | -5.94974 | 5994 ft | 123 kts | 37° |
| 2026-04-21 17:41 | 54.56937 | -5.94133 | 5999 ft | 120 kts | 46° |
| 2026-04-21 17:41 | 54.57579 | -5.93228 | 5989 ft | 120 kts | 48° |
| 2026-04-21 17:42 | 54.58214 | -5.92294 | 5995 ft | 120 kts | 47° |
| 2026-04-21 17:42 | 54.58850 | -5.91387 | 5994 ft | 118 kts | 48° |
| 2026-04-21 17:42 | 54.59468 | -5.90461 | 5991 ft | 119 kts | 45° |
| 2026-04-21 17:42 | 54.60143 | -5.89640 | 6015 ft | 120 kts | 43° |
| 2026-04-21 17:43 | 54.60845 | -5.88837 | 6003 ft | 120 kts | 43° |
| 2026-04-21 17:43 | 54.61519 | -5.87974 | 5993 ft | 121 kts | 46° |
| 2026-04-21 17:43 | 54.62167 | -5.87072 | 6021 ft | 120 kts | 46° |
| 2026-04-21 17:43 | 54.62605 | -5.85949 | 6066 ft | 109 kts | 79° |
| 2026-04-21 17:44 | 54.62647 | -5.84649 | 5996 ft | 112 kts | 94° |
| 2026-04-21 17:44 | 54.62619 | -5.83331 | 5975 ft | 109 kts | 92° |
| 2026-04-21 17:44 | 54.62721 | -5.82031 | 5953 ft | 110 kts | 84° |
| 2026-04-21 17:44 | 54.62839 | -5.80762 | 6013 ft | 106 kts | 85° |
| 2026-04-21 17:45 | 54.62954 | -5.79494 | 5990 ft | 108 kts | 87° |
| 2026-04-21 17:45 | 54.63065 | -5.78228 | 6066 ft | 106 kts | 84° |
| 2026-04-21 17:45 | 54.63179 | -5.76959 | 6080 ft | 107 kts | 86° |
| 2026-04-21 17:45 | 54.63319 | -5.75715 | 6134 ft | 108 kts | 79° |
| 2026-04-21 17:46 | 54.63758 | -5.74591 | 6126 ft | 119 kts | 48° |
| 2026-04-21 17:46 | 54.64541 | -5.73958 | 6105 ft | 128 kts | 22° |
| 2026-04-21 17:46 | 54.65403 | -5.73587 | 6072 ft | 131 kts | 23° |
| 2026-04-21 17:46 | 54.66279 | -5.73181 | 6054 ft | 129 kts | 24° |
| 2026-04-21 17:47 | 54.67138 | -5.72765 | 6013 ft | 128 kts | 24° |
| 2026-04-21 17:47 | 54.68036 | -5.72513 | 5901 ft | 137 kts | 6° |
| 2026-04-21 17:47 | 54.68968 | -5.73031 | 5797 ft | 143 kts | 335° |
| 2026-04-21 17:47 | 54.69698 | -5.74221 | 5476 ft | 145 kts | 306° |
| 2026-04-21 17:48 | 54.69963 | -5.75274 | 5197 ft | 145 kts | 284° |
| 2026-04-21 17:48 | 54.69781 | -5.77448 | 4735 ft | 134 kts | 234° |
| 2026-04-21 17:48 | 54.69166 | -5.78543 | 4459 ft | 120 kts | 207° |
| 2026-04-21 17:48 | 54.68465 | -5.79227 | 4229 ft | 113 kts | 197° |
| 2026-04-21 17:49 | 54.67765 | -5.79872 | 4011 ft | 115 kts | 201° |
| 2026-04-21 17:49 | 54.67124 | -5.80665 | 3874 ft | 113 kts | 207° |
| 2026-04-21 17:49 | 54.66483 | -5.81452 | 3686 ft | 113 kts | 206° |
| 2026-04-21 17:49 | 54.65834 | -5.82222 | 3497 ft | 113 kts | 203° |
| 2026-04-21 17:50 | 54.65191 | -5.83023 | 3322 ft | 114 kts | 206° |
| 2026-04-21 17:50 | 54.64547 | -5.83823 | 3166 ft | 113 kts | 205° |
| 2026-04-21 17:50 | 54.63936 | -5.84657 | 3009 ft | 113 kts | 210° |
| 2026-04-21 17:50 | 54.63345 | -5.85550 | 2972 ft | 114 kts | 210° |
| 2026-04-21 17:51 | 54.62761 | -5.86422 | 2986 ft | 109 kts | 207° |
| 2026-04-21 17:51 | 54.62150 | -5.87164 | 3001 ft | 105 kts | 195° |
| 2026-04-21 17:51 | 54.61479 | -5.87584 | 3049 ft | 99 kts | 176° |
| 2026-04-21 17:51 | 54.60793 | -5.87708 | 3056 ft | 99 kts | 170° |
| 2026-04-21 17:52 | 54.60113 | -5.87818 | 3052 ft | 101 kts | 174° |
| 2026-04-21 17:52 | 54.59410 | -5.88095 | 3024 ft | 106 kts | 184° |
| 2026-04-21 17:52 | 54.58712 | -5.88441 | 2997 ft | 103 kts | 180° |
| 2026-04-21 17:52 | 54.58017 | -5.88706 | 2960 ft | 103 kts | 179° |
| 2026-04-21 17:53 | 54.57331 | -5.88960 | 2985 ft | 100 kts | 180° |
| 2026-04-21 17:53 | 54.56644 | -5.89379 | 2913 ft | 106 kts | 190° |
| 2026-04-21 17:53 | 54.55989 | -5.89828 | 2903 ft | 101 kts | 185° |
| 2026-04-21 17:53 | 54.55323 | -5.90234 | 2874 ft | 104 kts | 188° |
| 2026-04-21 17:54 | 54.54658 | -5.90709 | 2876 ft | 103 kts | 189° |
| 2026-04-21 17:54 | 54.53995 | -5.91223 | 2962 ft | 103 kts | 191° |
| 2026-04-21 17:54 | 54.53347 | -5.91742 | 2991 ft | 105 kts | 191° |
| 2026-04-21 17:54 | 54.52679 | -5.92209 | 2999 ft | 103 kts | 185° |
| 2026-04-21 17:55 | 54.52236 | -5.92501 | 3038 ft | 101 kts | 187° |
| 2026-04-21 17:55 | 54.51574 | -5.92852 | 3039 ft | 98 kts | 178° |
| 2026-04-21 17:55 | 54.50898 | -5.93198 | 3059 ft | 103 kts | 186° |
| 2026-04-21 17:55 | 54.50210 | -5.93499 | 3065 ft | 99 kts | 175° |
| 2026-04-21 17:56 | 54.49555 | -5.93718 | 3103 ft | 96 kts | 172° |
| 2026-04-21 17:56 | 54.48876 | -5.93867 | 3164 ft | 101 kts | 178° |
| 2026-04-21 17:56 | 54.48169 | -5.94099 | 3174 ft | 105 kts | 176° |
| 2026-04-21 17:56 | 54.47486 | -5.94561 | 3232 ft | 113 kts | 206° |
| 2026-04-21 17:57 | 54.46984 | -5.95736 | 3186 ft | 129 kts | 236° |
| 2026-04-21 17:57 | 54.46625 | -5.97157 | 3211 ft | 129 kts | 242° |
| 2026-04-21 17:57 | 54.46325 | -5.98619 | 3187 ft | 132 kts | 244° |
| 2026-04-21 17:57 | 54.46051 | -6.00118 | 3167 ft | 134 kts | 248° |
| 2026-04-21 17:58 | 54.45991 | -6.01679 | 3195 ft | 132 kts | 285° |
| 2026-04-21 17:58 | 54.46509 | -6.02921 | 3108 ft | 125 kts | 340° |
| 2026-04-21 17:58 | 54.47272 | -6.03119 | 3041 ft | 104 kts | 29° |
| 2026-04-21 17:58 | 54.47844 | -6.02542 | 2953 ft | 95 kts | 48° |
| 2026-04-21 17:59 | 54.48389 | -6.01897 | 2864 ft | 94 kts | 49° |
| 2026-04-21 17:59 | 54.48914 | -6.01218 | 2744 ft | 94 kts | 50° |
| 2026-04-21 17:59 | 54.49439 | -6.00540 | 2609 ft | 95 kts | 47° |
| 2026-04-21 17:59 | 54.49975 | -5.99907 | 2506 ft | 93 kts | 49° |
| 2026-04-21 18:00 | 54.50509 | -5.99250 | 2358 ft | 96 kts | 47° |
| 2026-04-21 18:00 | 54.51012 | -5.98589 | 2303 ft | 89 kts | 50° |
| 2026-04-21 18:00 | 54.51483 | -5.97909 | 2230 ft | 87 kts | 54° |
| 2026-04-21 18:00 | 54.52051 | -5.97391 | 2092 ft | 96 kts | 35° |
| 2026-04-21 18:01 | 54.52681 | -5.97031 | 1973 ft | 98 kts | 27° |
| 2026-04-21 18:01 | 54.53294 | -5.96781 | 1963 ft | 88 kts | 35° |
| 2026-04-21 18:01 | 54.53850 | -5.96437 | 1957 ft | 79 kts | 38° |
| 2026-04-21 18:01 | 54.54333 | -5.96048 | 1834 ft | 74 kts | 46° |
| 2026-04-21 18:02 | 54.54768 | -5.95547 | 1689 ft | 74 kts | 51° |
| 2026-04-21 18:02 | 54.55187 | -5.95017 | 1570 ft | 78 kts | 45° |
| 2026-04-21 18:02 | 54.55631 | -5.94507 | 1491 ft | 77 kts | 47° |
| 2026-04-21 18:02 | 54.56061 | -5.93935 | 1392 ft | 80 kts | 50° |
| 2026-04-21 18:03 | 54.56503 | -5.93343 | 1295 ft | 79 kts | 44° |
| 2026-04-21 18:03 | 54.56963 | -5.92821 | 1222 ft | 79 kts | 46° |
| 2026-04-21 18:03 | 54.57423 | -5.92284 | 1093 ft | 78 kts | 48° |
| 2026-04-21 18:03 | 54.57857 | -5.91714 | 961 ft | 79 kts | 46° |
| 2026-04-21 18:04 | 54.58332 | -5.91193 | 785 ft | 83 kts | 33° |
| 2026-04-21 18:04 | 54.58887 | -5.90927 | 689 ft | 81 kts | 24° |
| 2026-04-21 18:04 | 54.59374 | -5.90562 | 510 ft | 76 kts | 56° |
| 2026-04-21 18:04 | 54.59676 | -5.89908 | 472 ft | 61 kts | 58° |
| 2026-04-21 18:05 | 54.59977 | -5.89468 | 345 ft | 54 kts | 51° |
| 2026-04-21 18:05 | 54.60276 | -5.89102 | 247 ft | 57 kts | 45° |
| 2026-04-21 18:05 | 54.60623 | -5.88667 | 207 ft | 64 kts | 50° |
| 2026-04-21 18:05 | 54.60994 | -5.88231 | 104 ft | 66 kts | 42° |
| 2026-04-21 18:06 | 54.61361 | -5.87796 | 22 ft | 58 kts | 46° |
| 2026-04-21 18:06 | 54.61616 | -5.87477 | 16 ft | 29 kts | 45° |
| 2026-04-21 18:06 | 54.61724 | -5.87333 | 18 ft | 8 kts | 27° |
| 2026-04-21 18:06 | 54.61761 | -5.87292 | 18 ft | 10 kts | 33° |
| 2026-04-21 18:07 | 54.61833 | -5.87210 | 18 ft | 4 kts | 75° |
| 2026-04-21 18:07 | 54.61825 | -5.87154 | 17 ft | 9 kts | 126° |
| 2026-04-21 18:07 | 54.61774 | -5.87029 | 17 ft | 10 kts | 129° |
| 2026-04-21 18:07 | 54.61770 | -5.87019 | 17 ft | 1 kts | 124° |
| 2026-04-21 18:08 | 54.61750 | -5.86990 | 17 ft | 5 kts | 156° |
| 2026-04-21 18:08 | 54.61701 | -5.87018 | 17 ft | 16 kts | 216° |
| 2026-04-21 18:08 | 54.61627 | -5.87102 | 17 ft | 4 kts | 159° |
| 2026-04-21 18:08 | 54.61615 | -5.87058 | 17 ft | 5 kts | 128° |
| 2026-04-21 18:09 | 54.61598 | -5.87014 | 17 ft | 1 kts | 124° |
| 2026-04-21 18:09 | 54.61596 | -5.87009 | 17 ft | 0 kts | 123° |